Time;durP1;ratioP1;P1;durP2;ratioP2;P2;SDS_P1;SDS_P2;PMS_P1;PMS_P2;Temp;Humidity;BMP_temperature;BMP_pressure;BME280_temperature;BME280_humidity;BME280_pressure;Samples;Min_cycle;Max_cycle;Signal;HPM_P1;HPM_P2
2022/12/01 00:00:11;;;;;;;;;;;2.90;99.90;;;;;;5037561;28;20016;-74
2022/12/01 00:02:43;;;;;;;;;;;2.90;99.90;;;;;;5005659;28;19925;-74
2022/12/01 00:05:14;;;;;;;;;;;3.00;99.90;;;;;;5019609;28;20307;-73
2022/12/01 00:07:49;;;;;;;;;;;3.00;99.90;;;;;;5021853;28;20140;-74
2022/12/01 00:10:27;;;;;;;;;;;3.00;99.90;;;;;;5024651;28;20465;-74
2022/12/01 00:13:00;;;;;;;;;;;2.90;99.90;;;;;;5037055;28;19975;-74
2022/12/01 00:15:33;;;;;;;;;;;2.90;99.90;;;;;;5027574;28;19929;-73
2022/12/01 00:18:05;;;;;;;;;;;2.90;99.90;;;;;;5026341;28;20391;-73
2022/12/01 00:20:36;;;;;;;;;;;2.90;99.90;;;;;;5042785;28;20473;-74
2022/12/01 00:23:08;;;;;;;;;;;2.90;99.90;;;;;;5036975;28;20423;-72
2022/12/01 00:25:40;;;;;;;;;;;2.90;99.90;;;;;;5036123;28;19983;-74
2022/12/01 00:28:11;;;;;;;;;;;2.90;99.90;;;;;;5012420;28;20005;-74
2022/12/01 00:30:43;;;;;;;;;;;2.80;99.90;;;;;;5021712;28;20292;-74
2022/12/01 00:33:14;;;;;;;;;;;2.80;99.90;;;;;;5025689;28;19928;-73
2022/12/01 00:35:46;;;;;;;;;;;2.90;99.90;;;;;;5030015;28;19979;-74
2022/12/01 00:38:17;;;;;;;;;;;2.80;99.90;;;;;;5023864;28;19929;-74
2022/12/01 00:40:49;;;;;;;;;;;2.80;99.90;;;;;;5038479;28;20303;-74
2022/12/01 00:43:20;;;;;;;;;;;2.80;99.90;;;;;;5024533;28;19991;-73
2022/12/01 00:45:52;;;;;;;;;;;2.90;99.90;;;;;;5030674;28;19955;-73
2022/12/01 00:48:24;;;;;;;;;;;2.90;99.90;;;;;;5040217;28;20494;-74
2022/12/01 00:50:55;;;;;;;;;;;2.90;99.90;;;;;;5038789;28;19980;-74
2022/12/01 00:53:27;;;;;;;;;;;2.80;99.90;;;;;;5026510;28;19924;-74
2022/12/01 00:55:59;;;;;;;;;;;2.90;99.90;;;;;;5034945;28;20445;-74
2022/12/01 00:58:30;;;;;;;;;;;2.80;99.90;;;;;;5008973;28;19979;-73
2022/12/01 01:01:02;;;;;;;;;;;2.90;99.90;;;;;;5033479;28;20508;-74
2022/12/01 01:03:33;;;;;;;;;;;2.90;99.90;;;;;;5036985;28;19925;-73
2022/12/01 01:06:06;;;;;;;;;;;2.80;99.90;;;;;;5032840;28;19929;-74
2022/12/01 01:08:38;;;;;;;;;;;2.80;99.90;;;;;;5037267;28;19933;-74
2022/12/01 01:11:11;;;;;;;;;;;2.80;99.90;;;;;;5035643;28;19987;-74
2022/12/01 01:13:42;;;;;;;;;;;2.80;99.90;;;;;;5043356;28;19937;-74
2022/12/01 01:16:16;;;;;;;;;;;2.80;99.90;;;;;;5016311;28;20433;-73
2022/12/01 01:18:47;;;;;;;;;;;2.80;99.90;;;;;;5004319;28;19928;-75
2022/12/01 01:21:20;;;;;;;;;;;2.80;99.90;;;;;;5017351;28;19929;-74
2022/12/01 01:23:53;;;;;;;;;;;2.80;99.90;;;;;;5036112;28;19928;-74
2022/12/01 01:26:21;;;;;;;;;;;2.80;99.90;;;;;;5018718;28;19925;-74
2022/12/01 01:28:55;;;;;;;;;;;2.80;99.90;;;;;;5024107;28;20018;-73
2022/12/01 01:31:22;;;;;;;;;;;2.70;99.90;;;;;;5021335;28;19929;-73
2022/12/01 01:33:49;;;;;;;;;;;2.70;99.90;;;;;;5035980;28;20462;-74
2022/12/01 01:36:22;;;;;;;;;;;2.70;99.90;;;;;;5039542;28;19983;-74
2022/12/01 01:38:54;;;;;;;;;;;2.70;99.90;;;;;;5004618;28;19978;-73
2022/12/01 01:41:21;;;;;;;;;;;2.70;99.90;;;;;;5020069;28;19934;-75
2022/12/01 01:44:16;;;;;;;;;;;2.70;99.90;;;;;;5037702;28;19928;-73
2022/12/01 01:46:48;;;;;;;;;;;2.70;99.90;;;;;;4989210;28;19929;-73
2022/12/01 01:49:19;;;;;;;;;;;2.70;99.90;;;;;;5008521;28;19925;-73
2022/12/01 01:51:52;;;;;;;;;;;2.60;99.90;;;;;;5045887;28;19970;-73
2022/12/01 01:54:30;;;;;;;;;;;2.60;99.90;;;;;;5038719;28;20391;-74
2022/12/01 01:57:04;;;;;;;;;;;2.60;99.90;;;;;;5039990;28;19929;-73
2022/12/01 01:59:37;;;;;;;;;;;2.60;99.90;;;;;;5041959;28;19932;-73
2022/12/01 02:02:10;;;;;;;;;;;2.60;99.90;;;;;;5019255;28;19940;-74
2022/12/01 02:04:46;;;;;;;;;;;2.60;99.90;;;;;;5025719;28;19936;-73
2022/12/01 02:07:18;;;;;;;;;;;2.60;99.90;;;;;;5035307;28;19936;-73
2022/12/01 02:09:44;;;;;;;;;;;2.60;99.90;;;;;;5007520;28;19925;-73
2022/12/01 02:12:19;;;;;;;;;;;2.60;99.90;;;;;;5034182;28;19940;-74
2022/12/01 02:15:09;;;;;;;;;;;2.60;99.90;;;;;;5037157;28;20019;-75
2022/12/01 02:17:51;;;;;;;;;;;2.60;99.90;;;;;;5039626;28;19925;-74
2022/12/01 02:20:25;;;;;;;;;;;2.60;99.90;;;;;;5030598;28;19979;-73
2022/12/01 02:23:06;;;;;;;;;;;2.60;99.90;;;;;;5026635;28;20358;-73
2022/12/01 02:25:49;;;;;;;;;;;2.60;99.90;;;;;;5002910;28;19976;-72
2022/12/01 02:28:24;;;;;;;;;;;2.60;99.90;;;;;;5036919;28;20388;-73
2022/12/01 02:30:57;;;;;;;;;;;2.60;99.90;;;;;;5016251;28;20485;-74
2022/12/01 02:33:34;;;;;;;;;;;2.60;99.90;;;;;;5024146;28;19982;-73
2022/12/01 02:36:13;;;;;;;;;;;2.60;99.90;;;;;;5018405;28;19972;-73
2022/12/01 02:38:55;;;;;;;;;;;2.60;99.90;;;;;;5030510;28;19932;-76
2022/12/01 02:41:38;;;;;;;;;;;2.60;99.90;;;;;;5033320;28;19925;-73
2022/12/01 02:44:16;;;;;;;;;;;2.60;99.90;;;;;;5020077;28;20231;-74
2022/12/01 02:46:51;;;;;;;;;;;2.60;99.90;;;;;;5035886;28;20269;-73
2022/12/01 02:49:27;;;;;;;;;;;2.60;99.90;;;;;;5030573;28;20387;-74
2022/12/01 02:51:59;;;;;;;;;;;2.60;99.90;;;;;;5042092;28;19929;-72
2022/12/01 02:54:27;;;;;;;;;;;2.60;99.90;;;;;;5043674;28;19924;-73
2022/12/01 02:56:54;;;;;;;;;;;2.60;99.90;;;;;;5014655;28;19952;-74
2022/12/01 02:59:25;;;;;;;;;;;2.60;99.90;;;;;;5041690;28;19925;-73
2022/12/01 03:02:10;;;;;;;;;;;2.60;99.90;;;;;;5019209;28;19932;-73
2022/12/01 03:05:00;;;;;;;;;;;2.60;99.90;;;;;;5032319;28;19925;-74
2022/12/01 03:07:34;;;;;;;;;;;2.60;99.90;;;;;;5031550;28;19925;-73
2022/12/01 03:10:09;;;;;;;;;;;2.50;99.90;;;;;;5028911;28;20358;-74
2022/12/01 03:12:54;;;;;;;;;;;2.50;99.90;;;;;;5031739;28;19925;-73
2022/12/01 03:15:26;;;;;;;;;;;2.50;99.90;;;;;;4995177;28;19929;-73
2022/12/01 03:17:58;;;;;;;;;;;2.60;99.90;;;;;;5041541;28;19929;-73
2022/12/01 03:20:32;;;;;;;;;;;2.60;99.90;;;;;;5004756;28;20556;-73
2022/12/01 03:23:08;;;;;;;;;;;2.60;99.90;;;;;;5030999;28;19925;-73
2022/12/01 03:25:42;;;;;;;;;;;2.60;99.90;;;;;;5031735;28;19933;-74
2022/12/01 03:28:14;;;;;;;;;;;2.50;99.90;;;;;;5016541;28;20064;-74
2022/12/01 03:30:47;;;;;;;;;;;2.60;99.90;;;;;;5027873;28;20370;-75
2022/12/01 03:33:24;;;;;;;;;;;2.60;99.90;;;;;;5015829;28;19925;-74
2022/12/01 03:35:54;;;;;;;;;;;2.60;99.90;;;;;;5028826;28;19937;-74
2022/12/01 03:38:28;;;;;;;;;;;2.50;99.90;;;;;;4993050;28;19930;-74
2022/12/01 03:41:03;;;;;;;;;;;2.50;99.90;;;;;;5031700;28;19979;-74
2022/12/01 03:43:37;;;;;;;;;;;2.60;99.90;;;;;;5036577;28;19970;-74
2022/12/01 03:46:24;;;;;;;;;;;2.60;99.90;;;;;;5005200;28;19933;-72
2022/12/01 03:48:53;;;;;;;;;;;2.50;99.90;;;;;;5022104;28;20000;-73
2022/12/01 03:51:38;;;;;;;;;;;2.50;99.90;;;;;;5044865;28;19963;-73
2022/12/01 03:54:09;;;;;;;;;;;2.50;99.90;;;;;;5015556;28;19949;-73
2022/12/01 03:56:46;;;;;;;;;;;2.60;99.90;;;;;;5036245;28;20347;-74
2022/12/01 03:59:19;;;;;;;;;;;2.60;99.90;;;;;;5037195;28;20446;-73
2022/12/01 04:01:51;;;;;;;;;;;2.60;99.90;;;;;;5041229;28;19929;-73
2022/12/01 04:04:23;;;;;;;;;;;2.60;99.90;;;;;;5023686;28;19994;-73
2022/12/01 04:06:54;;;;;;;;;;;2.60;99.90;;;;;;5027159;28;19925;-72
2022/12/01 04:09:26;;;;;;;;;;;2.60;99.90;;;;;;5045549;28;19925;-73
2022/12/01 04:14:48;;;;;;;;;;;2.60;99.90;;;;;;5040991;28;19975;-73
2022/12/01 04:17:19;;;;;;;;;;;2.60;99.90;;;;;;5003568;28;20410;-74
2022/12/01 04:19:51;;;;;;;;;;;2.60;99.90;;;;;;5047518;28;19986;-72
2022/12/01 04:22:23;;;;;;;;;;;2.60;99.90;;;;;;5050231;28;20310;-72
2022/12/01 04:24:54;;;;;;;;;;;2.60;99.90;;;;;;5012752;28;19978;-74
2022/12/01 04:27:26;;;;;;;;;;;2.60;99.90;;;;;;5019945;28;19987;-74
2022/12/01 04:29:58;;;;;;;;;;;2.50;99.90;;;;;;5047701;28;20488;-74
2022/12/01 04:32:29;;;;;;;;;;;2.50;99.90;;;;;;5017198;28;19929;-72
2022/12/01 04:35:01;;;;;;;;;;;2.60;99.90;;;;;;5039125;28;19971;-73
2022/12/01 04:37:33;;;;;;;;;;;2.60;99.90;;;;;;5029234;28;19925;-74
2022/12/01 04:40:04;;;;;;;;;;;2.60;99.90;;;;;;5028269;28;19951;-72
2022/12/01 04:42:36;;;;;;;;;;;2.60;99.90;;;;;;5023680;28;19952;-72
2022/12/01 04:45:08;;;;;;;;;;;2.60;99.90;;;;;;5033350;28;19998;-73
2022/12/01 04:47:39;;;;;;;;;;;2.60;99.90;;;;;;5045482;28;19929;-73
2022/12/01 04:50:11;;;;;;;;;;;2.60;99.90;;;;;;5041873;28;20399;-74
2022/12/01 04:52:43;;;;;;;;;;;2.60;99.90;;;;;;5041319;28;20343;-72
2022/12/01 04:55:14;;;;;;;;;;;2.60;99.90;;;;;;5039102;28;19925;-75
2022/12/01 04:57:46;;;;;;;;;;;2.60;99.90;;;;;;5037702;28;19964;-74
2022/12/01 05:00:17;;;;;;;;;;;2.60;99.90;;;;;;5044267;28;19979;-75
2022/12/01 05:02:49;;;;;;;;;;;2.60;99.90;;;;;;5023409;28;19925;-74
2022/12/01 05:05:20;;;;;;;;;;;2.60;99.90;;;;;;5020993;28;19955;-72
2022/12/01 05:07:52;;;;;;;;;;;2.60;99.90;;;;;;5034732;28;19948;-72
2022/12/01 05:10:24;;;;;;;;;;;2.60;99.90;;;;;;5045241;28;19925;-74
2022/12/01 05:12:57;;;;;;;;;;;2.60;99.90;;;;;;5041309;28;19925;-73
2022/12/01 05:15:28;;;;;;;;;;;2.70;99.90;;;;;;5030326;28;19929;-73
2022/12/01 05:18:00;;;;;;;;;;;2.70;99.90;;;;;;5036840;28;19925;-73
2022/12/01 05:23:23;;;;;;;;;;;2.60;99.90;;;;;;5033304;28;20352;-74
2022/12/01 05:25:55;;;;;;;;;;;2.60;99.90;;;;;;5036817;28;19936;-73
2022/12/01 05:28:26;;;;;;;;;;;2.60;99.90;;;;;;5039527;28;19932;-74
2022/12/01 05:30:58;;;;;;;;;;;2.60;99.90;;;;;;5031862;28;19933;-75
2022/12/01 05:33:30;;;;;;;;;;;2.60;99.90;;;;;;5015712;28;20596;-74
2022/12/01 05:36:01;;;;;;;;;;;2.60;99.90;;;;;;5018235;28;19925;-75
2022/12/01 05:38:33;;;;;;;;;;;2.60;99.90;;;;;;5030409;28;19929;-74
2022/12/01 05:41:04;;;;;;;;;;;2.70;99.90;;;;;;5044952;28;19929;-75
2022/12/01 05:43:36;;;;;;;;;;;2.60;99.90;;;;;;5013640;28;20330;-74
2022/12/01 05:46:08;;;;;;;;;;;2.70;99.90;;;;;;5003201;28;20269;-74
2022/12/01 05:48:40;;;;;;;;;;;2.70;99.90;;;;;;5010755;28;19929;-74
2022/12/01 05:51:13;;;;;;;;;;;2.70;99.90;;;;;;5014080;28;20396;-73
2022/12/01 05:53:45;;;;;;;;;;;2.70;99.90;;;;;;5032892;28;19929;-73
2022/12/01 05:56:16;;;;;;;;;;;2.70;99.90;;;;;;5021112;28;19948;-73
2022/12/01 05:58:48;;;;;;;;;;;2.70;99.90;;;;;;5040438;28;19925;-74
2022/12/01 06:01:14;;;;;;;;;;;2.70;99.90;;;;;;4995880;28;20049;-73
2022/12/01 06:03:41;;;;;;;;;;;2.80;99.90;;;;;;5029399;28;19976;-73
2022/12/01 06:06:12;;;;;;;;;;;2.70;99.90;;;;;;5028421;28;20346;-74
2022/12/01 06:08:44;;;;;;;;;;;2.70;99.90;;;;;;5029708;28;19929;-73
2022/12/01 06:11:15;;;;;;;;;;;2.70;99.90;;;;;;5005758;28;19983;-73
2022/12/01 06:13:47;;;;;;;;;;;2.70;99.90;;;;;;5021631;28;19925;-74
2022/12/01 06:16:14;;;;;;;;;;;2.80;99.90;;;;;;5033426;28;19928;-74
2022/12/01 06:18:45;;;;;;;;;;;2.80;99.90;;;;;;5037616;28;20606;-74
2022/12/01 06:21:17;;;;;;;;;;;2.80;99.90;;;;;;5030669;28;19972;-74
2022/12/01 06:23:48;;;;;;;;;;;2.70;99.90;;;;;;5032861;28;19929;-74
2022/12/01 06:26:20;;;;;;;;;;;2.70;99.90;;;;;;5017727;28;19929;-74
2022/12/01 06:28:51;;;;;;;;;;;2.70;99.90;;;;;;5039417;28;19933;-74
2022/12/01 06:31:23;;;;;;;;;;;2.70;99.90;;;;;;5022568;28;19929;-73
2022/12/01 06:33:54;;;;;;;;;;;2.70;99.90;;;;;;5031832;28;19929;-72
2022/12/01 06:36:26;;;;;;;;;;;2.80;99.90;;;;;;5028126;28;20469;-73
2022/12/01 06:38:57;;;;;;;;;;;2.80;99.90;;;;;;5015507;28;19932;-74
2022/12/01 06:41:30;;;;;;;;;;;2.80;99.90;;;;;;5027857;28;19925;-74
2022/12/01 06:44:02;;;;;;;;;;;2.70;99.90;;;;;;5018376;28;19980;-73
2022/12/01 06:46:33;;;;;;;;;;;2.80;99.90;;;;;;5028760;28;19928;-74
2022/12/01 06:49:05;;;;;;;;;;;2.80;99.90;;;;;;5018071;28;19929;-74
2022/12/01 06:51:33;;;;;;;;;;;2.80;99.90;;;;;;5034115;28;19924;-73
2022/12/01 06:53:59;;;;;;;;;;;2.80;99.90;;;;;;5033516;28;20281;-73
2022/12/01 06:56:31;;;;;;;;;;;2.80;99.90;;;;;;4993540;28;19937;-73
2022/12/01 06:59:03;;;;;;;;;;;2.80;99.90;;;;;;5026857;28;19987;-75
2022/12/01 07:01:34;;;;;;;;;;;2.80;99.90;;;;;;5017466;28;19929;-73
2022/12/01 07:04:06;;;;;;;;;;;3.20;99.90;;;;;;5001971;28;19929;-74
2022/12/01 07:06:38;;;;;;;;;;;3.30;99.90;;;;;;5012485;28;19940;-74
2022/12/01 07:09:04;;;;;;;;;;;3.30;99.90;;;;;;5016906;28;20230;-74
2022/12/01 07:11:37;;;;;;;;;;;3.20;99.90;;;;;;5021245;28;19959;-74
2022/12/01 07:14:16;;;;;;;;;;;3.20;99.90;;;;;;5011165;28;19995;-74
2022/12/01 07:16:48;;;;;;;;;;;3.10;99.90;;;;;;4993284;28;19929;-72
2022/12/01 07:19:19;;;;;;;;;;;3.10;99.90;;;;;;5035638;28;19933;-73
2022/12/01 07:21:51;;;;;;;;;;;3.10;99.90;;;;;;5031812;28;19943;-73
2022/12/01 07:24:22;;;;;;;;;;;3.00;99.90;;;;;;5036055;28;19928;-72
2022/12/01 07:26:54;;;;;;;;;;;3.00;99.90;;;;;;5032116;28;19928;-73
2022/12/01 07:29:25;;;;;;;;;;;3.00;99.90;;;;;;5040684;28;19972;-73
2022/12/01 07:31:57;;;;;;;;;;;3.00;99.90;;;;;;5037248;28;20357;-73
2022/12/01 07:34:28;;;;;;;;;;;3.00;99.90;;;;;;5041679;28;19929;-73
2022/12/01 07:37:00;;;;;;;;;;;3.00;99.90;;;;;;5015469;28;20382;-73
2022/12/01 07:39:32;;;;;;;;;;;3.00;99.90;;;;;;5038560;28;20272;-74
2022/12/01 07:42:03;;;;;;;;;;;2.90;99.90;;;;;;5036177;28;19940;-75
2022/12/01 07:44:35;;;;;;;;;;;3.00;99.90;;;;;;5036040;28;19995;-73
2022/12/01 07:47:06;;;;;;;;;;;3.00;99.90;;;;;;5034495;28;19959;-72
2022/12/01 07:49:38;;;;;;;;;;;2.90;99.90;;;;;;5015781;28;20299;-73
2022/12/01 07:52:09;;;;;;;;;;;2.90;99.90;;;;;;5039378;28;19928;-73
2022/12/01 07:54:41;;;;;;;;;;;2.90;99.90;;;;;;5022363;28;19925;-72
2022/12/01 07:57:13;;;;;;;;;;;2.90;99.90;;;;;;5034554;28;20404;-73
2022/12/01 07:59:45;;;;;;;;;;;2.90;99.90;;;;;;5032334;28;19979;-72
2022/12/01 08:02:16;;;;;;;;;;;2.80;99.90;;;;;;5022573;28;20078;-73
2022/12/01 08:04:48;;;;;;;;;;;2.80;99.90;;;;;;5019342;28;19925;-73
2022/12/01 08:07:14;;;;;;;;;;;2.90;99.90;;;;;;5035930;28;20387;-73
2022/12/01 08:09:46;;;;;;;;;;;2.90;99.90;;;;;;5035783;28;19979;-73
2022/12/01 08:12:18;;;;;;;;;;;2.90;99.90;;;;;;5044312;28;19929;-76
2022/12/01 08:14:49;;;;;;;;;;;2.90;99.90;;;;;;5042129;28;19975;-73
2022/12/01 08:17:21;;;;;;;;;;;2.90;99.90;;;;;;5024110;28;19929;-73
2022/12/01 08:19:47;;;;;;;;;;;2.90;99.90;;;;;;5011343;28;19925;-73
2022/12/01 08:22:19;;;;;;;;;;;2.90;99.90;;;;;;5028631;28;19929;-73
2022/12/01 08:24:51;;;;;;;;;;;2.90;99.90;;;;;;5040221;28;19925;-74
2022/12/01 08:27:22;;;;;;;;;;;2.90;99.90;;;;;;5029208;28;19992;-74
2022/12/01 08:29:49;;;;;;;;;;;2.90;99.90;;;;;;5039977;28;20376;-73
2022/12/01 08:32:20;;;;;;;;;;;2.90;99.90;;;;;;5023052;28;19951;-73
2022/12/01 08:34:52;;;;;;;;;;;2.90;99.90;;;;;;5025501;28;19925;-73
2022/12/01 08:37:23;;;;;;;;;;;2.90;99.90;;;;;;5014192;28;19975;-73
2022/12/01 08:39:55;;;;;;;;;;;2.90;99.90;;;;;;5029538;28;19932;-74
2022/12/01 08:42:22;;;;;;;;;;;2.90;99.90;;;;;;5039517;28;20302;-73
2022/12/01 08:44:53;;;;;;;;;;;2.90;99.90;;;;;;5012379;28;20454;-74
2022/12/01 08:47:26;;;;;;;;;;;2.90;99.90;;;;;;5034942;28;19932;-73
2022/12/01 08:49:58;;;;;;;;;;;2.90;99.90;;;;;;5034708;28;20335;-74
2022/12/01 08:52:33;;;;;;;;;;;2.90;99.90;;;;;;5040511;28;20348;-74
2022/12/01 08:55:05;;;;;;;;;;;2.90;99.90;;;;;;5016650;28;19932;-73
2022/12/01 08:57:37;;;;;;;;;;;2.90;99.90;;;;;;4992083;28;19971;-73
2022/12/01 09:00:04;;;;;;;;;;;2.90;99.90;;;;;;5017586;28;19929;-74
2022/12/01 09:02:30;;;;;;;;;;;2.90;99.90;;;;;;5025713;28;20349;-75
2022/12/01 09:04:57;;;;;;;;;;;3.00;99.90;;;;;;5024541;28;19940;-72
2022/12/01 09:07:29;;;;;;;;;;;3.00;99.90;;;;;;5035013;28;20776;-74
2022/12/01 09:10:00;;;;;;;;;;;3.00;99.90;;;;;;5003895;28;19971;-74
2022/12/01 09:12:28;;;;;;;;;;;3.00;99.90;;;;;;5032637;28;19931;-74
2022/12/01 09:14:59;;;;;;;;;;;3.00;99.90;;;;;;5008158;28;19983;-72
2022/12/01 09:17:31;;;;;;;;;;;3.00;99.90;;;;;;5009249;28;19925;-73
2022/12/01 09:20:03;;;;;;;;;;;3.10;99.90;;;;;;5024896;28;20610;-73
2022/12/01 09:22:35;;;;;;;;;;;3.10;99.90;;;;;;5029927;28;20044;-74
2022/12/01 09:25:01;;;;;;;;;;;3.10;99.90;;;;;;5029562;28;19937;-73
2022/12/01 09:27:33;;;;;;;;;;;3.10;99.90;;;;;;5032110;28;19960;-74
2022/12/01 09:30:05;;;;;;;;;;;3.10;99.90;;;;;;5037261;28;19925;-74
2022/12/01 09:32:37;;;;;;;;;;;3.10;99.90;;;;;;5021124;28;19929;-74
2022/12/01 09:35:03;;;;;;;;;;;3.20;99.90;;;;;;5019410;28;19932;-71
2022/12/01 09:37:35;;;;;;;;;;;3.20;99.90;;;;;;5014996;28;19982;-73
2022/12/01 09:40:09;;;;;;;;;;;3.20;99.90;;;;;;5031131;28;19983;-73
2022/12/01 09:42:41;;;;;;;;;;;3.20;99.90;;;;;;5039020;28;19964;-74
2022/12/01 09:45:19;;;;;;;;;;;3.20;99.90;;;;;;5018846;28;20394;-75
2022/12/01 09:47:52;;;;;;;;;;;3.20;99.90;;;;;;5018918;28;19933;-73
2022/12/01 09:50:24;;;;;;;;;;;3.20;99.90;;;;;;5027722;28;19978;-73
2022/12/01 09:52:57;;;;;;;;;;;3.20;99.90;;;;;;5039889;28;19929;-74
2022/12/01 09:55:30;;;;;;;;;;;3.20;99.90;;;;;;5027209;28;19932;-72
2022/12/01 09:58:02;;;;;;;;;;;3.20;99.90;;;;;;5024088;28;19979;-73
2022/12/01 10:00:36;;;;;;;;;;;3.20;99.90;;;;;;5027401;28;19925;-74
2022/12/01 10:03:22;;;;;;;;;;;3.20;99.90;;;;;;5020924;28;19929;-74
2022/12/01 10:05:59;;;;;;;;;;;3.20;99.90;;;;;;5019116;28;19995;-75
2022/12/01 10:08:33;;;;;;;;;;;3.20;99.90;;;;;;5018870;28;20272;-74
2022/12/01 10:11:27;;;;;;;;;;;3.20;99.90;;;;;;5040012;28;19925;-75
2022/12/01 10:13:59;;;;;;;;;;;3.20;99.90;;;;;;5038120;28;19933;-74
2022/12/01 10:16:37;;;;;;;;;;;3.20;99.90;;;;;;5015692;28;20379;-72
2022/12/01 10:19:14;;;;;;;;;;;3.20;99.90;;;;;;5036010;28;19979;-73
2022/12/01 10:21:53;;;;;;;;;;;3.20;99.90;;;;;;5023237;28;19933;-74
2022/12/01 10:24:44;;;;;;;;;;;3.30;99.90;;;;;;5015622;28;20473;-75
2022/12/01 10:27:23;;;;;;;;;;;3.30;99.90;;;;;;5028590;28;19997;-71
2022/12/01 10:30:22;;;;;;;;;;;3.30;99.90;;;;;;5031542;28;19932;-74
2022/12/01 10:32:56;;;;;;;;;;;3.30;99.90;;;;;;5018270;28;19932;-74
2022/12/01 10:35:23;;;;;;;;;;;3.30;99.90;;;;;;5037340;28;19929;-73
2022/12/01 10:37:57;;;;;;;;;;;3.30;99.90;;;;;;5018857;28;19925;-74
2022/12/01 10:40:33;;;;;;;;;;;3.30;99.90;;;;;;5037753;28;20388;-74
2022/12/01 10:43:00;;;;;;;;;;;3.30;99.90;;;;;;5024363;28;20252;-75
2022/12/01 10:45:38;;;;;;;;;;;3.30;99.90;;;;;;5013656;28;19952;-74
2022/12/01 10:48:14;;;;;;;;;;;3.30;99.90;;;;;;5033819;28;19925;-73
2022/12/01 10:50:50;;;;;;;;;;;3.30;99.90;;;;;;5035928;28;19933;-74
2022/12/01 10:53:22;;;;;;;;;;;3.30;99.90;;;;;;5017352;28;20375;-73
2022/12/01 10:55:50;;;;;;;;;;;3.30;99.90;;;;;;5011557;28;20482;-75
2022/12/01 10:58:22;;;;;;;;;;;3.30;99.90;;;;;;5002903;28;19929;-74
2022/12/01 11:00:55;;;;;;;;;;;3.30;99.90;;;;;;5023456;28;19933;-73
2022/12/01 11:03:28;;;;;;;;;;;3.40;99.90;;;;;;5022277;28;19932;-74
2022/12/01 11:06:02;;;;;;;;;;;3.40;99.90;;;;;;5006104;28;19929;-72
2022/12/01 11:08:28;;;;;;;;;;;3.40;99.90;;;;;;5024151;28;20383;-73
2022/12/01 11:11:00;;;;;;;;;;;3.40;99.90;;;;;;5025296;28;20375;-73
2022/12/01 11:13:35;;;;;;;;;;;3.40;99.90;;;;;;5046734;28;20003;-73
2022/12/01 11:16:27;;;;;;;;;;;3.40;99.90;;;;;;5034111;28;19986;-72
2022/12/01 11:19:27;;;;;;;;;;;3.40;99.90;;;;;;5018826;28;20368;-74
2022/12/01 11:22:19;;;;;;;;;;;3.40;99.90;;;;;;4994755;28;19952;-71
2022/12/01 11:24:51;;;;;;;;;;;3.40;99.90;;;;;;5032765;28;19924;-74
2022/12/01 11:27:36;;;;;;;;;;;3.40;99.90;;;;;;5036085;28;19928;-73
2022/12/01 11:30:34;;;;;;;;;;;3.40;99.90;;;;;;5019094;28;20404;-74
2022/12/01 11:33:02;;;;;;;;;;;3.40;99.90;;;;;;5001234;28;19932;-75
2022/12/01 11:35:34;;;;;;;;;;;3.40;99.90;;;;;;5016082;28;19931;-75
2022/12/01 11:38:03;;;;;;;;;;;3.40;99.90;;;;;;5023123;28;20011;-75
2022/12/01 11:40:45;;;;;;;;;;;3.40;99.90;;;;;;5042165;28;19993;-72
2022/12/01 11:43:20;;;;;;;;;;;3.40;99.90;;;;;;5019164;28;19978;-73
2022/12/01 11:45:46;;;;;;;;;;;3.40;99.90;;;;;;5039628;28;19932;-74
2022/12/01 11:48:26;;;;;;;;;;;3.50;99.90;;;;;;4991959;28;20407;-74
2022/12/01 11:51:11;;;;;;;;;;;3.50;99.90;;;;;;5015199;28;19940;-75
2022/12/01 11:53:43;;;;;;;;;;;3.50;99.90;;;;;;5026495;28;19939;-71
2022/12/01 11:56:18;;;;;;;;;;;3.50;99.90;;;;;;5033451;28;19928;-72
2022/12/01 11:58:55;;;;;;;;;;;3.50;99.90;;;;;;5017528;28;19925;-71
2022/12/01 12:01:33;;;;;;;;;;;3.50;99.90;;;;;;5032670;28;19933;-71
2022/12/01 12:04:23;;;;;;;;;;;3.60;99.90;;;;;;5032763;28;20383;-71
2022/12/01 12:07:06;;;;;;;;;;;3.60;99.90;;;;;;5023066;28;19924;-73
2022/12/01 12:09:47;;;;;;;;;;;3.60;99.90;;;;;;5031409;28;20516;-74
2022/12/01 12:12:34;;;;;;;;;;;3.60;99.90;;;;;;5036568;28;19925;-75
2022/12/01 12:15:24;;;;;;;;;;;3.60;99.90;;;;;;4997684;28;20396;-74
2022/12/01 12:18:01;;;;;;;;;;;3.60;99.90;;;;;;5009163;28;20456;-72
2022/12/01 12:20:39;;;;;;;;;;;3.60;99.90;;;;;;5029068;28;20456;-74
2022/12/01 12:23:31;;;;;;;;;;;3.60;99.90;;;;;;5028232;28;20023;-75
2022/12/01 12:26:29;;;;;;;;;;;3.60;99.90;;;;;;4995787;28;19932;-75
2022/12/01 12:29:15;;;;;;;;;;;3.60;99.90;;;;;;4993224;28;19925;-73
2022/12/01 12:31:52;;;;;;;;;;;3.60;99.90;;;;;;5029358;28;19929;-74
2022/12/01 12:34:25;;;;;;;;;;;3.70;99.90;;;;;;5007955;28;20314;-74
2022/12/01 12:36:59;;;;;;;;;;;3.70;99.90;;;;;;5031095;28;19952;-72
2022/12/01 12:39:44;;;;;;;;;;;3.60;99.90;;;;;;4996908;28;19941;-75
2022/12/01 12:42:30;;;;;;;;;;;3.60;99.90;;;;;;5017220;28;19964;-71
2022/12/01 12:45:12;;;;;;;;;;;3.60;99.90;;;;;;5021787;28;19929;-72
2022/12/01 12:48:05;;;;;;;;;;;3.60;99.90;;;;;;5025924;28;19929;-72
2022/12/01 12:50:36;;;;;;;;;;;3.60;99.90;;;;;;5036646;28;19945;-74
2022/12/01 12:53:08;;;;;;;;;;;3.60;99.90;;;;;;5031693;28;19929;-74
2022/12/01 12:55:42;;;;;;;;;;;3.60;99.90;;;;;;5017302;28;20272;-73
2022/12/01 12:58:20;;;;;;;;;;;3.70;99.90;;;;;;5027973;28;19925;-74
2022/12/01 13:00:49;;;;;;;;;;;3.60;99.90;;;;;;5030856;28;19933;-76
2022/12/01 13:03:24;;;;;;;;;;;3.60;99.90;;;;;;5019287;28;20063;-73
2022/12/01 13:06:01;;;;;;;;;;;3.60;99.90;;;;;;5028291;28;20373;-75
2022/12/01 13:08:40;;;;;;;;;;;3.50;99.90;;;;;;5003958;28;19932;-74
2022/12/01 13:11:14;;;;;;;;;;;3.50;99.90;;;;;;5017022;28;19928;-74
2022/12/01 13:13:49;;;;;;;;;;;3.50;99.90;;;;;;5025619;28;20410;-73
2022/12/01 13:16:21;;;;;;;;;;;3.50;99.90;;;;;;5010127;28;19936;-75
2022/12/01 13:19:03;;;;;;;;;;;3.40;99.90;;;;;;5035359;28;20598;-74
2022/12/01 13:21:38;;;;;;;;;;;3.40;99.90;;;;;;5000986;28;20269;-73
2022/12/01 13:24:11;;;;;;;;;;;3.50;99.90;;;;;;4990105;28;19941;-73
2022/12/01 13:26:44;;;;;;;;;;;3.40;99.90;;;;;;5025116;28;19979;-74
2022/12/01 13:29:18;;;;;;;;;;;3.50;99.90;;;;;;5035458;28;20610;-73
2022/12/01 13:31:50;;;;;;;;;;;3.40;99.90;;;;;;5030362;28;20365;-74
2022/12/01 13:34:33;;;;;;;;;;;3.40;99.90;;;;;;5023979;28;19964;-74
2022/12/01 13:37:05;;;;;;;;;;;3.40;99.90;;;;;;5022564;28;19926;-74
2022/12/01 13:39:38;;;;;;;;;;;3.40;99.90;;;;;;5021332;28;19983;-74
2022/12/01 13:42:21;;;;;;;;;;;3.40;99.90;;;;;;5027988;28;19925;-74
2022/12/01 13:44:50;;;;;;;;;;;3.40;99.90;;;;;;5017813;28;19929;-74
2022/12/01 13:47:30;;;;;;;;;;;3.40;99.90;;;;;;5014675;28;19933;-74
2022/12/01 13:50:28;;;;;;;;;;;3.50;99.90;;;;;;5014263;28;19929;-73
2022/12/01 13:53:24;;;;;;;;;;;3.40;99.90;;;;;;4997915;28;20284;-73
2022/12/01 13:55:58;;;;;;;;;;;3.40;99.90;;;;;;5002566;28;20375;-73
2022/12/01 13:58:33;;;;;;;;;;;3.40;99.90;;;;;;5035454;28;19929;-73
2022/12/01 14:01:20;;;;;;;;;;;3.40;99.90;;;;;;5030661;28;20050;-74
2022/12/01 14:03:55;;;;;;;;;;;3.40;99.90;;;;;;5021373;28;19937;-74
2022/12/01 14:06:30;;;;;;;;;;;3.30;99.90;;;;;;5005382;28;19941;-74
2022/12/01 14:09:20;;;;;;;;;;;3.40;99.90;;;;;;5021674;28;19932;-74
2022/12/01 14:11:55;;;;;;;;;;;3.50;99.90;;;;;;5032135;28;20435;-73
2022/12/01 14:14:31;;;;;;;;;;;3.50;99.90;;;;;;5039373;28;20006;-74
2022/12/01 14:17:01;;;;;;;;;;;3.60;99.90;;;;;;5017764;28;19929;-73
2022/12/01 14:19:46;;;;;;;;;;;3.60;99.90;;;;;;5033505;28;20335;-71
2022/12/01 14:22:36;;;;;;;;;;;3.60;99.90;;;;;;5024761;28;19932;-73
2022/12/01 14:25:21;;;;;;;;;;;3.60;99.90;;;;;;5015398;28;19932;-74
2022/12/01 14:28:00;;;;;;;;;;;3.60;99.90;;;;;;5036130;28;20331;-73
2022/12/01 14:30:37;;;;;;;;;;;3.60;99.90;;;;;;5037420;28;19928;-73
2022/12/01 14:33:28;;;;;;;;;;;3.80;99.90;;;;;;4999203;28;19994;-74
2022/12/01 14:36:00;;;;;;;;;;;3.90;99.90;;;;;;4998733;28;19975;-73
2022/12/01 14:38:31;;;;;;;;;;;3.90;99.90;;;;;;5005071;28;19928;-73
2022/12/01 14:41:07;;;;;;;;;;;3.80;99.90;;;;;;5036230;28;20345;-73
2022/12/01 14:46:21;;;;;;;;;;;3.70;99.90;;;;;;5017296;28;20347;-73
2022/12/01 14:48:49;;;;;;;;;;;3.60;99.90;;;;;;5022263;28;20528;-74
2022/12/01 14:51:30;;;;;;;;;;;3.50;99.90;;;;;;5034703;28;19979;-75
2022/12/01 14:54:06;;;;;;;;;;;3.50;99.90;;;;;;5020161;28;19929;-75
2022/12/01 14:56:39;;;;;;;;;;;3.40;99.90;;;;;;5040785;28;19931;-75
2022/12/01 14:59:13;;;;;;;;;;;3.40;99.90;;;;;;5034172;28;19990;-72
2022/12/01 15:01:47;;;;;;;;;;;3.40;99.90;;;;;;5011456;28;20631;-74
2022/12/01 15:04:14;;;;;;;;;;;3.30;99.90;;;;;;5020908;28;19979;-74
2022/12/01 15:06:51;;;;;;;;;;;3.30;99.90;;;;;;5034395;28;19956;-74
2022/12/01 15:09:23;;;;;;;;;;;3.30;99.90;;;;;;5039087;28;19925;-73
2022/12/01 15:12:02;;;;;;;;;;;3.20;99.90;;;;;;5004262;28;19940;-74
2022/12/01 15:14:35;;;;;;;;;;;3.20;99.90;;;;;;5013249;28;19970;-72
2022/12/01 15:17:26;;;;;;;;;;;3.20;99.90;;;;;;5003472;28;19929;-71
2022/12/01 15:19:58;;;;;;;;;;;3.20;99.90;;;;;;5031214;28;20004;-73